Time;durP1;ratioP1;P1;durP2;ratioP2;P2;SDS_P1;SDS_P2;PMS_P1;PMS_P2;Temp;Humidity;BMP_temperature;BMP_pressure;BME280_temperature;BME280_humidity;BME280_pressure;Samples;Min_cycle;Max_cycle;Signal;HPM_P1;HPM_P2
2023/01/24 00:01:32;;;;;;;83.78;27.02;;;;;;;;;;6289681;28;20048;-55
2023/01/24 00:04:32;;;;;;;81.68;27.30;;;;;;;;;;6305889;28;20055;-62
2023/01/24 00:07:33;;;;;;;76.55;25.80;;;;;;;;;;6315677;28;20296;-59
2023/01/24 00:10:34;;;;;;;78.05;25.73;;;;;;;;;;6317790;28;20498;-60
2023/01/24 00:13:35;;;;;;;93.15;26.52;;;;;;;;;;6318349;28;20504;-55
2023/01/24 00:16:36;;;;;;;82.38;27.67;;;;;;;;;;6316805;28;20052;-57
2023/01/24 00:19:36;;;;;;;85.28;28.67;;;;;;;;;;6318400;28;20054;-61
2023/01/24 00:22:37;;;;;;;90.82;28.92;;;;;;;;;;6317675;28;20052;-57
2023/01/24 00:25:38;;;;;;;86.07;26.25;;;;;;;;;;6312783;28;20457;-63
2023/01/24 00:28:39;;;;;;;80.13;27.40;;;;;;;;;;6309928;28;20093;-56
2023/01/24 00:31:39;;;;;;;86.43;28.45;;;;;;;;;;6287836;28;20510;-51
2023/01/24 00:34:40;;;;;;;83.50;26.95;;;;;;;;;;6306909;28;20145;-59
2023/01/24 00:37:41;;;;;;;90.45;27.15;;;;;;;;;;6315850;28;20086;-56
2023/01/24 00:40:41;;;;;;;85.05;27.48;;;;;;;;;;6310841;28;20500;-57
2023/01/24 00:43:42;;;;;;;84.82;28.17;;;;;;;;;;6317724;28;20482;-54
2023/01/24 00:46:43;;;;;;;84.45;27.17;;;;;;;;;;6309875;28;20052;-62
2023/01/24 00:49:44;;;;;;;74.22;25.65;;;;;;;;;;6307335;28;20624;-58
2023/01/24 00:52:44;;;;;;;77.47;27.48;;;;;;;;;;6316195;28;20048;-56
2023/01/24 00:55:46;;;;;;;75.47;25.33;;;;;;;;;;6316971;28;20068;-56
2023/01/24 00:58:47;;;;;;;84.97;27.08;;;;;;;;;;6312520;28;20075;-55
2023/01/24 01:01:47;;;;;;;78.05;25.65;;;;;;;;;;6314659;28;20497;-56
2023/01/24 01:04:48;;;;;;;75.70;26.27;;;;;;;;;;6312152;28;20557;-53
2023/01/24 01:07:48;;;;;;;81.30;26.60;;;;;;;;;;6316519;28;20523;-60
2023/01/24 01:10:50;;;;;;;78.00;25.55;;;;;;;;;;6316549;28;20073;-55
2023/01/24 01:13:54;;;;;;;76.50;25.02;;;;;;;;;;6311705;28;20435;-56
2023/01/24 01:16:55;;;;;;;79.70;24.60;;;;;;;;;;6316237;28;20482;-57
2023/01/24 01:19:56;;;;;;;81.25;27.63;;;;;;;;;;6302565;28;20097;-64
2023/01/24 01:22:56;;;;;;;80.13;23.65;;;;;;;;;;6315191;28;20052;-53
2023/01/24 01:26:05;;;;;;;67.22;23.63;;;;;;;;;;6309393;28;20048;-56
2023/01/24 01:29:06;;;;;;;84.25;28.50;;;;;;;;;;6308682;28;20048;-55
2023/01/24 01:32:07;;;;;;;70.45;24.92;;;;;;;;;;6304603;28;20552;-55
2023/01/24 01:35:07;;;;;;;74.50;23.50;;;;;;;;;;6308476;28;20411;-62
2023/01/24 01:38:08;;;;;;;75.55;24.88;;;;;;;;;;6313027;28;20044;-57
2023/01/24 01:41:12;;;;;;;72.20;24.77;;;;;;;;;;6306006;28;20048;-59
2023/01/24 01:44:37;;;;;;;72.32;23.95;;;;;;;;;;6291154;28;20059;-54
2023/01/24 01:47:38;;;;;;;83.03;25.65;;;;;;;;;;6299897;28;20498;-61
2023/01/24 01:50:43;;;;;;;74.70;24.63;;;;;;;;;;6306507;28;20105;-63
2023/01/24 01:53:49;;;;;;;74.75;24.67;;;;;;;;;;6280852;28;20453;-62
2023/01/24 01:56:55;;;;;;;72.88;25.05;;;;;;;;;;6310894;28;20040;-59
2023/01/24 02:00:16;;;;;;;80.68;23.95;;;;;;;;;;6311476;28;20098;-63
2023/01/24 02:03:39;;;;;;;79.00;22.90;;;;;;;;;;6276753;28;20122;-63
2023/01/24 02:06:51;;;;;;;72.87;21.90;;;;;;;;;;6306718;28;20047;-60
2023/01/24 02:09:54;;;;;;;75.80;25.20;;;;;;;;;;6310031;28;20490;-56
2023/01/24 02:12:55;;;;;;;75.97;23.17;;;;;;;;;;6309049;28;20109;-62
2023/01/24 02:16:05;;;;;;;72.25;23.50;;;;;;;;;;6287102;28;20043;-58
2023/01/24 02:19:14;;;;;;;67.88;23.75;;;;;;;;;;6299699;28;20064;-59
2023/01/24 02:22:25;;;;;;;80.32;25.67;;;;;;;;;;6310823;28;20047;-54
2023/01/24 02:25:37;;;;;;;84.43;27.63;;;;;;;;;;6311349;28;20055;-55
2023/01/24 02:29:03;;;;;;;72.88;23.65;;;;;;;;;;6311719;28;20054;-53
2023/01/24 02:32:07;;;;;;;74.55;23.63;;;;;;;;;;6303250;28;20067;-63
2023/01/24 02:35:29;;;;;;;68.53;21.75;;;;;;;;;;6310653;28;20121;-55
2023/01/24 02:38:30;;;;;;;78.37;28.37;;;;;;;;;;6313648;28;20398;-58
2023/01/24 02:42:02;;;;;;;76.18;28.10;;;;;;;;;;6311032;28;20486;-62
2023/01/24 02:45:14;;;;;;;72.40;23.70;;;;;;;;;;6301108;28;20055;-53
2023/01/24 02:48:15;;;;;;;69.85;24.75;;;;;;;;;;6287958;28;20308;-57
2023/01/24 02:54:35;;;;;;;74.53;27.88;;;;;;;;;;6292246;28;20049;-57
2023/01/24 03:00:55;;;;;;;71.50;23.77;;;;;;;;;;6298297;28;20505;-60
2023/01/24 03:03:56;;;;;;;70.50;24.05;;;;;;;;;;6293869;28;20040;-57
2023/01/24 03:06:57;;;;;;;66.73;23.10;;;;;;;;;;6292030;28;20526;-55
2023/01/24 03:09:57;;;;;;;67.22;22.23;;;;;;;;;;6316528;28;20288;-59
2023/01/24 03:36:20;;;;;;;60.92;19.50;;;;;;;;;;6294844;28;20731;-57
2023/01/24 03:42:47;;;;;;;59.20;20.08;;;;;;;;;;6295922;28;20402;-56
2023/01/24 03:45:52;;;;;;;59.65;19.50;;;;;;;;;;6299008;28;20139;-59
2023/01/24 03:48:53;;;;;;;67.90;22.33;;;;;;;;;;6292992;28;20048;-56
2023/01/24 03:55:13;;;;;;;62.05;19.63;;;;;;;;;;6294260;28;20411;-55
2023/01/24 03:58:14;;;;;;;58.95;19.48;;;;;;;;;;6292438;28;20046;-63
2023/01/24 04:01:14;;;;;;;57.38;19.92;;;;;;;;;;6289934;28;20044;-64
2023/01/24 04:04:15;;;;;;;59.42;20.08;;;;;;;;;;6287897;28;20044;-57
2023/01/24 04:07:15;;;;;;;55.72;19.92;;;;;;;;;;6287957;28;20055;-56
2023/01/24 04:10:16;;;;;;;52.22;19.10;;;;;;;;;;6286080;28;20047;-54
2023/01/24 04:13:17;;;;;;;57.75;19.77;;;;;;;;;;6314596;28;20475;-60
2023/01/24 04:16:17;;;;;;;55.03;20.38;;;;;;;;;;6300865;28;20040;-56
2023/01/24 04:19:18;;;;;;;48.30;17.45;;;;;;;;;;6305549;28;20044;-55
2023/01/24 04:22:19;;;;;;;61.05;22.17;;;;;;;;;;6303893;28;20529;-54
2023/01/24 04:25:19;;;;;;;58.00;20.25;;;;;;;;;;6295115;28;20048;-58
2023/01/24 04:28:21;;;;;;;51.35;18.48;;;;;;;;;;6286406;28;20143;-58
2023/01/24 04:31:21;;;;;;;63.43;19.97;;;;;;;;;;6285971;28;20103;-56
2023/01/24 04:34:22;;;;;;;51.47;19.63;;;;;;;;;;6269188;28;20051;-58
2023/01/24 04:37:23;;;;;;;51.95;18.80;;;;;;;;;;6286315;28;20041;-56
2023/01/24 04:40:23;;;;;;;56.55;20.17;;;;;;;;;;6290018;28;20051;-55
2023/01/24 04:43:24;;;;;;;58.78;21.27;;;;;;;;;;6286952;28;20105;-57
2023/01/24 04:46:24;;;;;;;55.28;19.73;;;;;;;;;;6287271;28;20044;-55
2023/01/24 04:49:25;;;;;;;53.17;19.48;;;;;;;;;;6288933;28;20139;-52
2023/01/24 04:52:26;;;;;;;45.70;17.52;;;;;;;;;;6292556;28;20040;-57
2023/01/24 04:55:26;;;;;;;53.28;17.40;;;;;;;;;;6291453;28;20060;-57
2023/01/24 04:58:27;;;;;;;49.65;18.17;;;;;;;;;;6290535;28;20154;-56
2023/01/24 05:01:27;;;;;;;47.60;16.92;;;;;;;;;;6293734;28;20037;-57
2023/01/24 05:04:28;;;;;;;47.28;16.70;;;;;;;;;;6299910;28;20051;-59
2023/01/24 05:07:29;;;;;;;48.05;17.02;;;;;;;;;;6290361;28;20525;-58
2023/01/24 05:10:29;;;;;;;55.28;21.58;;;;;;;;;;6292089;28;20040;-57
2023/01/24 05:13:30;;;;;;;48.80;17.73;;;;;;;;;;6287621;28;20255;-63
2023/01/24 05:16:31;;;;;;;41.78;16.25;;;;;;;;;;6289179;28;20040;-56
2023/01/24 05:19:31;;;;;;;48.28;16.58;;;;;;;;;;6290824;28;20087;-56
2023/01/24 05:22:32;;;;;;;53.28;17.08;;;;;;;;;;6289237;28;20126;-57
2023/01/24 05:25:32;;;;;;;51.53;17.52;;;;;;;;;;6289036;28;20075;-53
2023/01/24 05:28:33;;;;;;;41.35;16.15;;;;;;;;;;6305445;28;20048;-57
2023/01/24 05:31:34;;;;;;;50.13;18.45;;;;;;;;;;6298661;28;20071;-63
2023/01/24 05:34:34;;;;;;;43.20;16.08;;;;;;;;;;6297128;28;20048;-57
2023/01/24 05:37:39;;;;;;;46.78;18.05;;;;;;;;;;6306791;28;20220;-57
2023/01/24 05:40:40;;;;;;;47.67;17.25;;;;;;;;;;6288520;28;20087;-56
2023/01/24 05:43:40;;;;;;;46.17;16.50;;;;;;;;;;6294870;28;20402;-55
2023/01/24 05:46:41;;;;;;;47.55;17.13;;;;;;;;;;6312192;28;20048;-56
2023/01/24 05:49:42;;;;;;;47.00;17.83;;;;;;;;;;6316925;28;20047;-55
2023/01/24 05:52:42;;;;;;;44.55;16.38;;;;;;;;;;6293346;28;20048;-58
2023/01/24 05:55:43;;;;;;;41.67;16.05;;;;;;;;;;6286029;28;20059;-57
2023/01/24 05:58:44;;;;;;;50.60;19.15;;;;;;;;;;6289939;28;20036;-58
2023/01/24 06:01:45;;;;;;;52.30;17.43;;;;;;;;;;6291306;28;20144;-58
2023/01/24 06:04:45;;;;;;;50.17;18.75;;;;;;;;;;6289898;28;21053;-59
2023/01/24 06:07:46;;;;;;;43.75;18.60;;;;;;;;;;6283213;28;20162;-55
2023/01/24 06:10:47;;;;;;;40.92;16.08;;;;;;;;;;6292129;28;20101;-58
2023/01/24 06:13:49;;;;;;;42.95;15.98;;;;;;;;;;6291013;28;20147;-59
2023/01/24 06:16:49;;;;;;;41.35;16.25;;;;;;;;;;6294920;28;20135;-56
2023/01/24 06:19:50;;;;;;;48.28;17.00;;;;;;;;;;6295528;28;20133;-59
2023/01/24 06:22:53;;;;;;;39.95;15.05;;;;;;;;;;6295349;28;20113;-54
2023/01/24 06:25:54;;;;;;;39.85;14.73;;;;;;;;;;6295253;28;20052;-57
2023/01/24 06:28:55;;;;;;;45.10;15.35;;;;;;;;;;6290802;28;20558;-56
2023/01/24 06:32:17;;;;;;;48.55;17.15;;;;;;;;;;6291894;28;20144;-57
2023/01/24 06:35:31;;;;;;;41.17;15.45;;;;;;;;;;6295165;28;20387;-59
2023/01/24 06:38:32;;;;;;;44.10;16.73;;;;;;;;;;6293139;28;20051;-59
2023/01/24 06:41:33;;;;;;;97.05;31.85;;;;;;;;;;6293740;28;20048;-58
2023/01/24 06:44:34;;;;;;;49.88;20.42;;;;;;;;;;6293645;28;20041;-58
2023/01/24 06:47:35;;;;;;;45.95;18.40;;;;;;;;;;6298348;28;20049;-57
2023/01/24 06:50:36;;;;;;;62.60;26.88;;;;;;;;;;6296298;28;20080;-63
2023/01/24 06:53:36;;;;;;;68.07;31.58;;;;;;;;;;6295452;28;20126;-59
2023/01/24 06:56:37;;;;;;;49.67;19.55;;;;;;;;;;6299502;28;20659;-57
2023/01/24 06:59:37;;;;;;;50.75;20.27;;;;;;;;;;6307359;28;20447;-57
2023/01/24 07:02:38;;;;;;;53.20;22.90;;;;;;;;;;6281972;28;20574;-61
2023/01/24 07:05:39;;;;;;;58.97;21.90;;;;;;;;;;6287360;28;20040;-61
2023/01/24 07:08:39;;;;;;;51.95;22.63;;;;;;;;;;6278405;28;20059;-61
2023/01/24 07:11:40;;;;;;;50.53;20.15;;;;;;;;;;6293588;28;20078;-61
2023/01/24 07:14:41;;;;;;;53.13;22.25;;;;;;;;;;6298204;28;20063;-61
2023/01/24 07:17:42;;;;;;;44.30;18.58;;;;;;;;;;6289753;28;20037;-61
2023/01/24 07:20:43;;;;;;;42.88;18.17;;;;;;;;;;6302397;28;20398;-60
2023/01/24 07:23:46;;;;;;;38.75;16.60;;;;;;;;;;6304067;28;20085;-63
2023/01/24 07:26:48;;;;;;;42.15;16.63;;;;;;;;;;6297202;28;20055;-61
2023/01/24 07:29:49;;;;;;;40.63;15.45;;;;;;;;;;6289341;28;20471;-60
2023/01/24 07:32:49;;;;;;;43.97;14.70;;;;;;;;;;6295416;28;20135;-61
2023/01/24 07:35:50;;;;;;;36.10;14.98;;;;;;;;;;6308719;28;20104;-63
2023/01/24 07:38:54;;;;;;;46.35;15.65;;;;;;;;;;6315022;28;20494;-60
2023/01/24 07:41:54;;;;;;;40.42;14.43;;;;;;;;;;6318600;28;20048;-62
2023/01/24 07:44:56;;;;;;;46.03;16.25;;;;;;;;;;6310958;28;20121;-54
2023/01/24 07:47:57;;;;;;;48.80;18.45;;;;;;;;;;6307008;28;20136;-58
2023/01/24 07:50:59;;;;;;;49.38;17.45;;;;;;;;;;6291853;28;20044;-57
2023/01/24 07:54:00;;;;;;;47.88;18.20;;;;;;;;;;6284875;28;20124;-61
2023/01/24 07:57:01;;;;;;;51.38;19.90;;;;;;;;;;6286725;28;20044;-58
2023/01/24 08:00:02;;;;;;;46.50;17.85;;;;;;;;;;6295471;28;20040;-58
2023/01/24 08:03:03;;;;;;;52.55;19.38;;;;;;;;;;6295036;28;20075;-58
2023/01/24 08:06:04;;;;;;;42.67;16.73;;;;;;;;;;6278312;28;20044;-57
2023/01/24 08:09:05;;;;;;;46.63;16.35;;;;;;;;;;6285271;28;20047;-59
2023/01/24 08:12:05;;;;;;;43.65;16.02;;;;;;;;;;6292514;28;20052;-56
2023/01/24 08:15:07;;;;;;;49.13;16.20;;;;;;;;;;6273056;28;20064;-59
2023/01/24 08:18:07;;;;;;;51.28;16.67;;;;;;;;;;6289609;28;20376;-57
2023/01/24 08:21:10;;;;;;;60.53;19.55;;;;;;;;;;6285586;28;20048;-57
2023/01/24 08:24:10;;;;;;;55.53;17.45;;;;;;;;;;6288252;28;20052;-59
2023/01/24 08:27:11;;;;;;;62.05;18.02;;;;;;;;;;6284035;28;20098;-58
2023/01/24 08:30:12;;;;;;;63.45;19.52;;;;;;;;;;6285279;28;20046;-59
2023/01/24 08:33:17;;;;;;;67.85;23.17;;;;;;;;;;6289593;28;20159;-57
2023/01/24 08:36:23;;;;;;;52.22;17.52;;;;;;;;;;6286708;28;20184;-57
2023/01/24 08:39:24;;;;;;;67.53;22.42;;;;;;;;;;6280878;28;20109;-57
2023/01/24 08:42:24;;;;;;;68.95;20.30;;;;;;;;;;6288224;28;20040;-62
2023/01/24 08:45:25;;;;;;;68.20;21.33;;;;;;;;;;6286037;28;20199;-57
2023/01/24 08:48:28;;;;;;;71.75;23.45;;;;;;;;;;6281830;28;20040;-54
2023/01/24 08:51:29;;;;;;;64.18;20.48;;;;;;;;;;6284862;28;20532;-58
2023/01/24 08:54:35;;;;;;;63.20;21.15;;;;;;;;;;6283755;28;20053;-57
2023/01/24 08:57:36;;;;;;;65.32;22.38;;;;;;;;;;6288988;28;20055;-56
2023/01/24 09:00:36;;;;;;;72.32;23.02;;;;;;;;;;6270990;28;20438;-58
2023/01/24 09:03:37;;;;;;;77.90;23.98;;;;;;;;;;6290571;28;20060;-58
2023/01/24 09:06:38;;;;;;;58.40;18.33;;;;;;;;;;6286585;28;20132;-61
2023/01/24 09:09:38;;;;;;;56.38;18.77;;;;;;;;;;6289543;28;20052;-57
2023/01/24 09:12:39;;;;;;;65.75;20.83;;;;;;;;;;6280786;28;20457;-58
2023/01/24 09:15:40;;;;;;;63.60;19.77;;;;;;;;;;6285813;28;20407;-58
2023/01/24 09:18:40;;;;;;;65.10;23.35;;;;;;;;;;6288180;28;20048;-57
2023/01/24 09:21:41;;;;;;;63.40;21.55;;;;;;;;;;6288005;28;20531;-60
2023/01/24 09:24:41;;;;;;;66.05;23.73;;;;;;;;;;6287542;28;20062;-58
2023/01/24 09:27:42;;;;;;;58.63;20.25;;;;;;;;;;6289654;28;20049;-55
2023/01/24 09:30:42;;;;;;;55.63;18.75;;;;;;;;;;6292764;28;20050;-57
2023/01/24 09:33:43;;;;;;;56.50;19.52;;;;;;;;;;6287160;28;20122;-59
2023/01/24 09:36:47;;;;;;;48.03;18.73;;;;;;;;;;6288275;28;20067;-56
2023/01/24 09:39:48;;;;;;;57.42;19.60;;;;;;;;;;6291383;28;20380;-56
2023/01/24 09:43:03;;;;;;;54.25;18.83;;;;;;;;;;6283448;28;20041;-55
2023/01/24 09:46:18;;;;;;;55.92;18.75;;;;;;;;;;6283166;28;20047;-58
2023/01/24 09:49:33;;;;;;;72.10;23.33;;;;;;;;;;6294379;28;20051;-56
2023/01/24 09:52:39;;;;;;;52.35;18.27;;;;;;;;;;6290875;28;20108;-57
2023/01/24 09:55:43;;;;;;;53.88;20.73;;;;;;;;;;6290530;28;20064;-58
2023/01/24 09:58:44;;;;;;;65.60;24.20;;;;;;;;;;6292819;28;20041;-58
2023/01/24 10:01:47;;;;;;;54.40;18.85;;;;;;;;;;6292853;28;20049;-58
2023/01/24 10:04:49;;;;;;;58.92;20.17;;;;;;;;;;6296935;28;20040;-58
2023/01/24 10:08:19;;;;;;;61.15;21.42;;;;;;;;;;6301008;28;20043;-58
2023/01/24 10:11:48;;;;;;;59.28;19.55;;;;;;;;;;6296123;28;20048;-58
2023/01/24 10:14:55;;;;;;;63.13;24.05;;;;;;;;;;6294173;28;20043;-58
2023/01/24 10:18:10;;;;;;;65.80;22.83;;;;;;;;;;6292264;28;20086;-58
2023/01/24 10:21:22;;;;;;;74.95;26.40;;;;;;;;;;6286984;28;20143;-57
2023/01/24 10:24:31;;;;;;;61.92;22.70;;;;;;;;;;6279747;28;20131;-57
2023/01/24 10:27:38;;;;;;;64.60;20.08;;;;;;;;;;6289850;28;20608;-59
2023/01/24 10:30:44;;;;;;;77.40;26.75;;;;;;;;;;6283933;28;20637;-59
2023/01/24 10:33:48;;;;;;;65.50;21.35;;;;;;;;;;6287042;28;20406;-60
2023/01/24 10:36:58;;;;;;;64.63;21.98;;;;;;;;;;6290611;28;20391;-59
2023/01/24 10:40:00;;;;;;;62.63;20.75;;;;;;;;;;6286232;28;20074;-59
2023/01/24 10:43:06;;;;;;;67.88;23.83;;;;;;;;;;6289673;28;20036;-60
2023/01/24 10:46:28;;;;;;;72.60;24.85;;;;;;;;;;6286865;28;20051;-58
2023/01/24 10:49:36;;;;;;;63.55;21.25;;;;;;;;;;6291078;28;20045;-58
2023/01/24 10:52:36;;;;;;;75.20;22.73;;;;;;;;;;6290741;28;20087;-56
2023/01/24 10:55:38;;;;;;;72.63;23.77;;;;;;;;;;6289421;28;20053;-60
2023/01/24 10:59:17;;;;;;;68.75;24.23;;;;;;;;;;6291155;28;20048;-56
2023/01/24 11:02:23;;;;;;;93.22;29.75;;;;;;;;;;6272148;28;20110;-56
2023/01/24 11:05:25;;;;;;;62.60;20.23;;;;;;;;;;6291349;28;20044;-58
2023/01/24 11:08:33;;;;;;;67.30;22.33;;;;;;;;;;6284759;28;20045;-59
2023/01/24 11:11:33;;;;;;;67.35;22.63;;;;;;;;;;6306587;28;20048;-57
2023/01/24 11:14:35;;;;;;;61.25;20.50;;;;;;;;;;6294881;28;20051;-64
2023/01/24 11:17:36;;;;;;;66.32;23.77;;;;;;;;;;6293676;28;20045;-63
2023/01/24 11:20:37;;;;;;;69.77;21.47;;;;;;;;;;6291462;28;20051;-65
2023/01/24 11:23:38;;;;;;;56.78;20.00;;;;;;;;;;6289161;28;20557;-58
2023/01/24 11:26:53;;;;;;;66.40;25.83;;;;;;;;;;6292784;28;20048;-64
2023/01/24 11:30:07;;;;;;;75.10;30.67;;;;;;;;;;6290292;28;20052;-57
2023/01/24 11:33:34;;;;;;;59.75;22.85;;;;;;;;;;6291023;28;20051;-59
2023/01/24 11:36:45;;;;;;;57.42;20.38;;;;;;;;;;6288329;28;20527;-58
2023/01/24 11:40:04;;;;;;;59.92;24.88;;;;;;;;;;6291370;28;20056;-59
2023/01/24 11:43:29;;;;;;;50.97;21.50;;;;;;;;;;6292659;28;20540;-59
2023/01/24 11:46:46;;;;;;;58.05;22.65;;;;;;;;;;6289825;28;20114;-58
2023/01/24 11:50:08;;;;;;;61.38;25.15;;;;;;;;;;6293315;28;20528;-59
2023/01/24 11:53:31;;;;;;;50.40;19.17;;;;;;;;;;6289940;28;20053;-64
2023/01/24 11:56:44;;;;;;;52.20;19.40;;;;;;;;;;6289029;28;20297;-61
2023/01/24 12:00:10;;;;;;;42.28;18.02;;;;;;;;;;6289459;28;20036;-59
2023/01/24 12:03:36;;;;;;;50.83;20.80;;;;;;;;;;6281513;28;20475;-64
2023/01/24 12:07:25;;;;;;;50.40;22.17;;;;;;;;;;6290813;28;20055;-59
2023/01/24 12:10:34;;;;;;;49.15;23.48;;;;;;;;;;6219294;28;20050;-59
2023/01/24 12:13:44;;;;;;;53.03;20.83;;;;;;;;;;6216162;28;20049;-59
2023/01/24 12:17:12;;;;;;;49.05;22.98;;;;;;;;;;6217021;28;20492;-60
2023/01/24 12:20:23;;;;;;;48.15;19.75;;;;;;;;;;6218603;28;20181;-60
2023/01/24 12:23:32;;;;;;;47.08;19.60;;;;;;;;;;6289974;28;20566;-58
2023/01/24 12:26:44;;;;;;;46.67;17.70;;;;;;;;;;6295124;28;20059;-58
2023/01/24 12:29:45;;;;;;;59.17;23.70;;;;;;;;;;6293606;28;20060;-64
2023/01/24 12:32:52;;;;;;;79.82;29.15;;;;;;;;;;6291549;28;20052;-58
2023/01/24 12:36:02;;;;;;;78.65;27.63;;;;;;;;;;6289142;28;20071;-55
2023/01/24 12:39:20;;;;;;;90.90;31.00;;;;;;;;;;6291029;28;20036;-57
2023/01/24 12:42:46;;;;;;;68.40;27.65;;;;;;;;;;6291269;28;20115;-59
2023/01/24 12:45:55;;;;;;;73.88;26.42;;;;;;;;;;6244718;28;20058;-59
2023/01/24 12:49:06;;;;;;;76.63;28.48;;;;;;;;;;6287144;28;20212;-57
2023/01/24 12:52:31;;;;;;;61.35;24.80;;;;;;;;;;6286611;28;20040;-58
2023/01/24 12:55:41;;;;;;;43.83;16.90;;;;;;;;;;6293567;28;20075;-62
2023/01/24 12:58:45;;;;;;;46.38;17.23;;;;;;;;;;6292123;28;20045;-59
2023/01/24 13:02:03;;;;;;;69.18;25.67;;;;;;;;;;6290251;28;20599;-61
2023/01/24 13:05:42;;;;;;;83.03;32.03;;;;;;;;;;6288869;28;20086;-59
2023/01/24 13:08:55;;;;;;;61.70;23.30;;;;;;;;;;6290605;28;20526;-60
2023/01/24 13:11:58;;;;;;;41.95;14.98;;;;;;;;;;6284635;28;20512;-57
2023/01/24 13:15:04;;;;;;;50.45;18.13;;;;;;;;;;6281632;28;20054;-58
2023/01/24 13:18:29;;;;;;;44.00;17.58;;;;;;;;;;6289859;28;20032;-60
2023/01/24 13:21:40;;;;;;;38.65;15.32;;;;;;;;;;6286516;28;20502;-57
2023/01/24 13:25:09;;;;;;;38.30;15.82;;;;;;;;;;6286152;28;20057;-56
2023/01/24 13:28:16;;;;;;;39.17;14.52;;;;;;;;;;6303948;28;20058;-58
2023/01/24 13:31:30;;;;;;;44.38;16.92;;;;;;;;;;6298587;28;20139;-64
2023/01/24 13:34:34;;;;;;;36.35;14.40;;;;;;;;;;6295279;28;20039;-60
2023/01/24 13:37:37;;;;;;;42.88;19.63;;;;;;;;;;6307243;28;20048;-59
2023/01/24 13:40:37;;;;;;;40.63;16.25;;;;;;;;;;6304734;28;20152;-57
2023/01/24 13:44:04;;;;;;;42.08;19.45;;;;;;;;;;6309810;28;20052;-61
2023/01/24 13:47:13;;;;;;;55.20;21.77;;;;;;;;;;6308668;28;20562;-59
2023/01/24 13:50:16;;;;;;;38.40;16.45;;;;;;;;;;6308758;28;20055;-57
2023/01/24 13:53:55;;;;;;;38.42;16.27;;;;;;;;;;6312384;28;20059;-60
2023/01/24 13:57:18;;;;;;;43.10;17.15;;;;;;;;;;6312531;28;20113;-58
2023/01/24 14:00:19;;;;;;;42.83;16.08;;;;;;;;;;6310349;28;20560;-61
2023/01/24 14:03:37;;;;;;;31.70;15.02;;;;;;;;;;6288774;28;20467;-58
2023/01/24 14:06:46;;;;;;;39.53;14.82;;;;;;;;;;6283712;28;20048;-60
2023/01/24 14:09:47;;;;;;;32.88;12.70;;;;;;;;;;6294175;28;20057;-59
2023/01/24 14:12:54;;;;;;;39.28;14.32;;;;;;;;;;6309129;28;20048;-58
2023/01/24 14:15:55;;;;;;;33.55;14.27;;;;;;;;;;6299230;28;20040;-58
2023/01/24 14:18:57;;;;;;;41.35;18.02;;;;;;;;;;6256952;28;20052;-61
2023/01/24 14:22:09;;;;;;;37.75;15.25;;;;;;;;;;6287542;28;20044;-57
2023/01/24 14:25:29;;;;;;;44.50;15.60;;;;;;;;;;6281779;28;20117;-58
2023/01/24 14:28:39;;;;;;;37.50;14.82;;;;;;;;;;6284475;28;20048;-59
2023/01/24 14:31:40;;;;;;;33.78;14.15;;;;;;;;;;6286834;28;20101;-59
2023/01/24 14:34:47;;;;;;;36.73;14.60;;;;;;;;;;6284270;28;20044;-60
2023/01/24 14:37:49;;;;;;;41.80;16.48;;;;;;;;;;6288973;28;20304;-59
2023/01/24 14:40:53;;;;;;;;;;;;;;;;;;6284705;28;20048;-58
2023/01/24 14:43:54;;;;;;;82.78;27.45;;;;;;;;;;6286480;28;19970;-58
2023/01/24 14:47:04;;;;;;;77.95;28.25;;;;;;;;;;6288065;28;20754;-59
2023/01/24 14:50:20;;;;;;;56.47;19.58;;;;;;;;;;6289077;28;20040;-57
2023/01/24 14:53:27;;;;;;;61.08;23.08;;;;;;;;;;6286179;28;20040;-58
2023/01/24 14:56:38;;;;;;;73.28;27.77;;;;;;;;;;6284440;28;20057;-59
2023/01/24 14:59:39;;;;;;;55.90;19.73;;;;;;;;;;6288771;28;20051;-57
2023/01/24 15:02:56;;;;;;;52.80;19.63;;;;;;;;;;6284794;28;20475;-58
2023/01/24 15:06:04;;;;;;;42.28;17.02;;;;;;;;;;6288207;28;21030;-57
2023/01/24 15:09:05;;;;;;;44.35;18.50;;;;;;;;;;6285387;28;20051;-57
2023/01/24 15:12:27;;;;;;;40.35;18.05;;;;;;;;;;6274668;28;20044;-55
2023/01/24 15:15:29;;;;;;;39.15;16.88;;;;;;;;;;6275305;28;20143;-55
2023/01/24 15:18:29;;;;;;;40.97;19.88;;;;;;;;;;6273529;28;20053;-57
2023/01/24 15:21:36;;;;;;;49.05;22.23;;;;;;;;;;6275159;28;20142;-57
2023/01/24 15:24:38;;;;;;;39.75;15.73;;;;;;;;;;6276030;28;20366;-56
2023/01/24 15:27:42;;;;;;;43.38;20.33;;;;;;;;;;6272496;28;20893;-59
2023/01/24 15:30:57;;;;;;;35.40;15.45;;;;;;;;;;6272460;28;20053;-58
2023/01/24 15:33:59;;;;;;;33.30;13.35;;;;;;;;;;6270927;28;20612;-60
2023/01/24 15:37:01;;;;;;;33.78;13.35;;;;;;;;;;6273323;28;20499;-57
2023/01/24 15:40:01;;;;;;;47.35;21.85;;;;;;;;;;6274781;28;20572;-58
2023/01/24 15:51:05;;;;;;;86.18;34.20;;;;;;;;;;6271389;28;20056;-58
2023/01/24 15:53:27;;;;;;;83.88;31.88;;;;;;;;;;6271464;28;20701;-58
2023/01/24 15:56:29;;;;;;;144.05;51.05;;;;;;;;;;6270750;28;20557;-56
2023/01/24 15:59:30;;;;;;;46.90;19.20;;;;;;;;;;6273754;28;20053;-58
2023/01/24 16:02:31;;;;;;;49.47;21.05;;;;;;;;;;6279523;28;20558;-62
2023/01/24 16:05:32;;;;;;;47.78;20.35;;;;;;;;;;6282049;28;20083;-56
2023/01/24 16:08:32;;;;;;;31.67;12.65;;;;;;;;;;6280567;28;20044;-59
2023/01/24 16:11:33;;;;;;;28.77;11.82;;;;;;;;;;6283075;28;20052;-54
2023/01/24 16:14:35;;;;;;;34.53;16.10;;;;;;;;;;6262790;28;20045;-56
2023/01/24 16:17:36;;;;;;;33.83;14.65;;;;;;;;;;6287942;28;20048;-57
2023/01/24 16:20:36;;;;;;;39.20;15.40;;;;;;;;;;6277490;28;20075;-56
2023/01/24 16:23:37;;;;;;;35.38;15.00;;;;;;;;;;6270392;28;20049;-60
2023/01/24 16:26:43;;;;;;;29.75;12.82;;;;;;;;;;6270239;28;20806;-60
2023/01/24 16:29:43;;;;;;;33.30;14.77;;;;;;;;;;6270552;28;20052;-57
2023/01/24 16:32:45;;;;;;;41.22;17.15;;;;;;;;;;6265723;28;20593;-59
2023/01/24 16:35:46;;;;;;;39.90;15.45;;;;;;;;;;6270654;28;20136;-59
2023/01/24 16:38:46;;;;;;;40.33;16.05;;;;;;;;;;6263793;28;20063;-59
2023/01/24 16:41:49;;;;;;;41.38;16.33;;;;;;;;;;6267426;28;20057;-68
2023/01/24 16:44:57;;;;;;;45.67;18.02;;;;;;;;;;6264146;28;20041;-52
2023/01/24 16:47:59;;;;;;;45.53;18.35;;;;;;;;;;6270001;28;20147;-54
2023/01/24 16:51:00;;;;;;;42.67;18.13;;;;;;;;;;6271282;28;20051;-58
2023/01/24 16:54:00;;;;;;;41.00;16.23;;;;;;;;;;6264515;28;20060;-53
2023/01/24 16:57:01;;;;;;;36.53;13.75;;;;;;;;;;6267083;28;20728;-54
2023/01/24 17:00:06;;;;;;;36.67;14.98;;;;;;;;;;6269428;28;20045;-51
2023/01/24 17:03:06;;;;;;;34.95;17.45;;;;;;;;;;6262186;28;20050;-54
2023/01/24 17:06:08;;;;;;;34.55;15.93;;;;;;;;;;6266177;28;20672;-53
2023/01/24 17:09:09;;;;;;;41.90;16.65;;;;;;;;;;6268162;28;20059;-53
2023/01/24 17:12:09;;;;;;;49.20;24.60;;;;;;;;;;6270652;28;20053;-52
2023/01/24 17:15:10;;;;;;;53.65;25.33;;;;;;;;;;6268792;28;20064;-55
2023/01/24 17:18:11;;;;;;;41.53;18.38;;;;;;;;;;6267700;28;20106;-57
2023/01/24 17:21:14;;;;;;;39.53;18.83;;;;;;;;;;6269648;28;20510;-53
2023/01/24 17:24:14;;;;;;;50.38;22.50;;;;;;;;;;6267237;28;20056;-56
2023/01/24 17:27:15;;;;;;;39.30;18.92;;;;;;;;;;6262423;28;20159;-56
2023/01/24 17:30:16;;;;;;;51.58;25.65;;;;;;;;;;6268848;28;20540;-55
2023/01/24 17:33:17;;;;;;;47.05;25.48;;;;;;;;;;6265662;28;20047;-57
2023/01/24 17:36:17;;;;;;;36.78;21.92;;;;;;;;;;6265643;28;20044;-56
2023/01/24 17:39:18;;;;;;;35.00;19.08;;;;;;;;;;6267354;28;20173;-56
2023/01/24 17:42:19;;;;;;;35.10;17.92;;;;;;;;;;6269730;28;20490;-55
2023/01/24 17:45:20;;;;;;;36.40;18.60;;;;;;;;;;6265495;28;20047;-57
2023/01/24 17:48:21;;;;;;;36.67;16.60;;;;;;;;;;6269499;28;20056;-56
2023/01/24 17:51:22;;;;;;;49.23;25.00;;;;;;;;;;6269849;28;20048;-54
2023/01/24 17:54:22;;;;;;;41.40;23.17;;;;;;;;;;6266046;28;20057;-56
2023/01/24 17:57:23;;;;;;;47.92;27.08;;;;;;;;;;6267172;28;20055;-56
2023/01/24 18:00:23;;;;;;;39.10;19.73;;;;;;;;;;6268399;28;20045;-56
2023/01/24 18:03:24;;;;;;;36.80;18.38;;;;;;;;;;6270121;28;21679;-57
2023/01/24 18:06:25;;;;;;;32.58;16.80;;;;;;;;;;6271765;28;20052;-58
2023/01/24 18:09:27;;;;;;;31.83;16.70;;;;;;;;;;6268136;28;20059;-55
2023/01/24 18:12:27;;;;;;;38.30;18.75;;;;;;;;;;6261577;28;20117;-55
2023/01/24 18:15:28;;;;;;;39.10;19.15;;;;;;;;;;6270778;28;20048;-57
2023/01/24 18:18:29;;;;;;;36.70;18.70;;;;;;;;;;6271277;28;20048;-56
2023/01/24 18:21:30;;;;;;;31.85;14.18;;;;;;;;;;6276606;28;20124;-54
2023/01/24 18:24:30;;;;;;;33.67;15.60;;;;;;;;;;6271007;28;20045;-53
2023/01/24 18:27:31;;;;;;;31.88;14.52;;;;;;;;;;6272256;28;20131;-54
2023/01/24 18:30:31;;;;;;;27.65;12.65;;;;;;;;;;6271298;28;20494;-55
2023/01/24 18:33:32;;;;;;;36.28;15.25;;;;;;;;;;6271992;28;20064;-56
2023/01/24 18:36:33;;;;;;;28.05;13.48;;;;;;;;;;6274959;28;20048;-56
2023/01/24 18:39:33;;;;;;;25.92;12.02;;;;;;;;;;6276081;28;20044;-59